createdAt,value
2017-12-08T00:04:45.117Z,99487
2017-12-08T00:09:46.691Z,99478
2017-12-08T00:14:48.327Z,99477
2017-12-08T00:19:49.951Z,99474
2017-12-08T00:24:52.224Z,99479
2017-12-08T00:29:53.748Z,99469
2017-12-08T00:34:55.339Z,99461
2017-12-08T00:39:56.892Z,99460
2017-12-08T00:44:58.420Z,99463
2017-12-08T00:49:59.960Z,99460
2017-12-08T00:55:01.516Z,99471
2017-12-08T01:00:03.074Z,99468
2017-12-08T01:05:04.609Z,99459
2017-12-08T01:10:06.157Z,99455
2017-12-08T01:15:08.423Z,99473
2017-12-08T01:20:10.824Z,99469
2017-12-08T01:25:13.144Z,99494
2017-12-08T01:30:14.725Z,99486
2017-12-08T01:35:16.244Z,99484
2017-12-08T01:40:18.491Z,99483
2017-12-08T01:45:20.023Z,99539
2017-12-08T01:50:21.567Z,99536
2017-12-08T01:55:23.840Z,99535
2017-12-08T02:00:32.168Z,99542
2017-12-08T02:05:34.468Z,99557
2017-12-08T02:10:36.011Z,99543
2017-12-08T02:15:37.540Z,99533
2017-12-08T02:20:39.080Z,99536
2017-12-08T02:25:40.590Z,99531
2017-12-08T02:30:42.126Z,99521
2017-12-08T02:35:43.670Z,99530
2017-12-08T02:40:45.187Z,99532
2017-12-08T02:45:46.771Z,99530
2017-12-08T02:50:48.351Z,99526
2017-12-08T02:55:50.641Z,99535
2017-12-08T03:00:52.170Z,99542
2017-12-08T03:05:53.684Z,99553
2017-12-08T03:10:55.975Z,99556
2017-12-08T03:15:58.232Z,99563
2017-12-08T03:20:59.762Z,99560
2017-12-08T03:26:01.319Z,99565
2017-12-08T03:31:03.632Z,99574
2017-12-08T03:36:05.197Z,99574
2017-12-08T03:41:06.742Z,99579
2017-12-08T03:46:08.261Z,99578
2017-12-08T03:51:09.789Z,99594
2017-12-08T03:56:11.303Z,99585
2017-12-08T04:01:13.573Z,99584
2017-12-08T04:06:15.143Z,99580
2017-12-08T04:11:16.713Z,99583
2017-12-08T04:16:18.269Z,99573
2017-12-08T04:21:19.816Z,99602
2017-12-08T04:26:21.353Z,99610
2017-12-08T04:31:22.894Z,99612
2017-12-08T04:36:24.488Z,99622
2017-12-08T04:41:26.051Z,99625
2017-12-08T04:46:27.588Z,99622
2017-12-08T04:51:29.165Z,99618
2017-12-08T04:56:31.429Z,99625
2017-12-08T05:01:32.963Z,99624
2017-12-08T05:06:34.529Z,99614
2017-12-08T05:11:36.224Z,99622
2017-12-08T05:16:37.763Z,99623
2017-12-08T05:21:39.268Z,99617
2017-12-08T05:26:40.793Z,99635
2017-12-08T05:31:42.494Z,99637
2017-12-08T05:36:44.134Z,99626
2017-12-08T05:41:45.697Z,99625
2017-12-08T05:46:47.260Z,99624
2017-12-08T05:51:48.920Z,99629
2017-12-08T05:56:50.518Z,99625
2017-12-08T06:01:52.049Z,99624
2017-12-08T06:06:54.339Z,99630
2017-12-08T06:11:56.651Z,99631
2017-12-08T06:16:58.151Z,99627
2017-12-08T06:21:59.665Z,99625
2017-12-08T06:27:01.994Z,99628
2017-12-08T06:32:03.486Z,99637
2017-12-08T06:37:05.001Z,99625
2017-12-08T06:42:06.534Z,99629
2017-12-08T06:47:08.333Z,99631
2017-12-08T06:52:09.861Z,99630
2017-12-08T06:57:11.349Z,99637
2017-12-08T07:02:13.639Z,99647
2017-12-08T07:07:15.889Z,99644
2017-12-08T07:12:17.565Z,99659
2017-12-08T07:17:19.091Z,99663
2017-12-08T07:22:20.652Z,99666
2017-12-08T07:27:22.183Z,99668
2017-12-08T07:32:24.477Z,99675
2017-12-08T07:37:26.874Z,99682
2017-12-08T07:42:28.391Z,99687
2017-12-08T07:47:29.900Z,99687
2017-12-08T07:52:32.188Z,99685
2017-12-08T07:57:34.468Z,99704
2017-12-08T08:02:36.713Z,99710
2017-12-08T08:07:38.261Z,99721
2017-12-08T08:12:39.763Z,99723
2017-12-08T08:17:41.256Z,99725
2017-12-08T08:22:43.516Z,99724
2017-12-08T08:27:45.212Z,99724
2017-12-08T08:32:47.496Z,99730
2017-12-08T08:37:49.752Z,99729
2017-12-08T08:42:51.272Z,99733
2017-12-08T08:47:52.986Z,99729
2017-12-08T08:52:55.438Z,99734
2017-12-08T08:57:56.966Z,99722
2017-12-08T09:02:59.271Z,99703
2017-12-08T09:08:00.833Z,99707
2017-12-08T09:13:03.101Z,99723
2017-12-08T09:18:05.377Z,99731
2017-12-08T09:23:06.948Z,99732
2017-12-08T09:28:08.508Z,99739
2017-12-08T09:33:10.016Z,99741
2017-12-08T09:38:11.487Z,99740
2017-12-08T09:43:13.150Z,99741
2017-12-08T09:48:14.659Z,99731
2017-12-08T09:53:16.203Z,99737
2017-12-08T09:58:17.724Z,99728
2017-12-08T10:03:19.965Z,99733
2017-12-08T10:08:21.469Z,99723
2017-12-08T10:13:22.992Z,99727
2017-12-08T10:18:24.573Z,99709
2017-12-08T10:23:26.073Z,99704
2017-12-08T10:28:27.813Z,99701
2017-12-08T10:33:29.313Z,99703
2017-12-08T10:38:30.841Z,99702
2017-12-08T10:43:32.375Z,99686
2017-12-08T10:48:33.930Z,99678
2017-12-08T10:53:36.190Z,99676
2017-12-08T10:58:37.714Z,99686
2017-12-08T11:03:39.226Z,99693
2017-12-08T11:08:40.732Z,99679
2017-12-08T11:13:42.261Z,99672
2017-12-08T11:18:43.959Z,99673
2017-12-08T11:23:46.267Z,99664
2017-12-08T11:28:47.779Z,99659
2017-12-08T11:33:49.324Z,99658
2017-12-08T11:38:50.827Z,99637
2017-12-08T11:43:52.344Z,99646
2017-12-08T11:48:54.066Z,99623
2017-12-08T11:53:56.337Z,99631
2017-12-08T11:58:57.925Z,99624
2017-12-08T12:04:00.250Z,99644
2017-12-08T12:09:01.771Z,99635
2017-12-08T12:14:04.043Z,99623
2017-12-08T12:19:05.592Z,99604
2017-12-08T12:24:07.102Z,99642
2017-12-08T12:29:09.534Z,99635
2017-12-08T12:34:11.011Z,99639
2017-12-08T12:39:12.554Z,99636
2017-12-08T12:44:14.309Z,99631
2017-12-08T12:49:15.938Z,99630
2017-12-08T12:54:17.446Z,99636
2017-12-08T12:59:19.681Z,99629
2017-12-08T13:04:21.194Z,99619
2017-12-08T13:09:23.667Z,99619
2017-12-08T13:14:25.956Z,99627
2017-12-08T13:19:28.282Z,99624
2017-12-08T13:24:29.816Z,99622
2017-12-08T13:29:32.108Z,99626
2017-12-08T13:34:34.488Z,99624
2017-12-08T13:39:36.757Z,99618
2017-12-08T13:44:38.297Z,99617
2017-12-08T13:49:39.898Z,99616
2017-12-08T13:54:59.750Z,99606
2017-12-08T14:00:01.335Z,99617
2017-12-08T14:05:02.858Z,99623
2017-12-08T14:10:04.411Z,99622
2017-12-08T14:15:06.781Z,99641
2017-12-08T14:20:08.415Z,99646
2017-12-08T14:25:09.964Z,99636
2017-12-08T14:30:11.949Z,99630
2017-12-08T14:35:13.540Z,99630
2017-12-08T14:40:15.068Z,99648
2017-12-08T14:45:16.724Z,99649
2017-12-08T14:50:19.026Z,99647
2017-12-08T14:55:20.549Z,99626
2017-12-08T15:00:22.087Z,99635
2017-12-08T15:05:23.594Z,99643
2017-12-08T15:10:25.074Z,99647
2017-12-08T15:15:27.332Z,99647
2017-12-08T15:20:28.892Z,99662
2017-12-08T15:25:30.422Z,99669
2017-12-08T15:30:32.235Z,99671
2017-12-08T15:35:34.413Z,99674
2017-12-08T15:40:35.924Z,99695
2017-12-08T15:45:38.259Z,99691
2017-12-08T15:50:39.823Z,99709
2017-12-08T15:55:41.342Z,99710
2017-12-08T16:00:43.627Z,99720
2017-12-08T16:05:46.077Z,99726
2017-12-08T16:10:47.585Z,99723
2017-12-08T16:15:57.022Z,99721
2017-12-08T16:20:58.567Z,99722
2017-12-08T16:26:00.112Z,99727
2017-12-08T16:31:01.632Z,99738
2017-12-08T16:36:03.918Z,99743
2017-12-08T16:41:06.155Z,99746
2017-12-08T16:46:07.641Z,99753
2017-12-08T16:51:09.162Z,99751
2017-12-08T16:56:10.647Z,99764
2017-12-08T17:01:12.147Z,99762
2017-12-08T17:06:13.706Z,99779
2017-12-08T17:11:15.273Z,99775
2017-12-08T17:16:16.825Z,99775
2017-12-08T17:21:18.342Z,99783
2017-12-08T17:26:20.573Z,99787
2017-12-08T17:31:22.139Z,99787
2017-12-08T17:36:23.681Z,99798
2017-12-08T17:41:25.218Z,99805
2017-12-08T17:46:26.731Z,99820
2017-12-08T17:51:28.256Z,99813
2017-12-08T17:56:30.562Z,99820
2017-12-08T18:01:32.041Z,99834
2017-12-08T18:06:33.633Z,99827
2017-12-08T18:11:35.165Z,99828
2017-12-08T18:16:37.444Z,99847
2017-12-08T18:21:39.698Z,99850
2017-12-08T18:26:41.248Z,99862
2017-12-08T18:31:42.782Z,99875
2017-12-08T18:36:44.350Z,99898
2017-12-08T18:41:45.885Z,99894
2017-12-08T18:46:47.425Z,99901
2017-12-08T18:51:48.902Z,99913
2017-12-08T18:56:50.326Z,99906
2017-12-08T19:01:51.814Z,99898
2017-12-08T19:06:53.291Z,99906
2017-12-08T19:11:54.775Z,99906
2017-12-08T19:16:56.309Z,99894
2017-12-08T19:21:57.780Z,99903
2017-12-08T19:26:59.253Z,99905
2017-12-08T19:32:07.791Z,99910
2017-12-08T19:37:09.294Z,99905
2017-12-08T19:42:11.480Z,99906
2017-12-08T19:47:13.667Z,99899
2017-12-08T19:52:15.171Z,99905
2017-12-08T19:57:16.715Z,99913
2017-12-08T20:02:18.200Z,99907
2017-12-08T20:07:19.679Z,99910
2017-12-08T20:12:21.129Z,99906
2017-12-08T20:17:22.663Z,99921
2017-12-08T20:22:24.082Z,99919
2017-12-08T20:27:25.614Z,99921
2017-12-08T20:32:27.075Z,99920
2017-12-08T20:37:28.646Z,99910
2017-12-08T20:42:30.215Z,99916
2017-12-08T20:47:31.841Z,99927
2017-12-08T20:52:33.497Z,99916
2017-12-08T20:57:35.062Z,99939
2017-12-08T21:02:36.798Z,99946
2017-12-08T21:07:38.355Z,99948
2017-12-08T21:12:39.849Z,99950
2017-12-08T21:17:41.453Z,99942
2017-12-08T21:22:42.992Z,99927
2017-12-08T21:27:44.541Z,99922
2017-12-08T21:32:46.011Z,99904
2017-12-08T21:37:47.695Z,99904
2017-12-08T21:42:49.250Z,99890
2017-12-08T21:47:50.783Z,99893
2017-12-08T21:52:53.076Z,99895
2017-12-08T21:57:55.408Z,99891
2017-12-08T22:02:56.964Z,99916
2017-12-08T22:07:58.537Z,99916
2017-12-08T22:13:00.087Z,99905
2017-12-08T22:18:01.717Z,99912
2017-12-08T22:23:04.072Z,99891
2017-12-08T22:28:05.594Z,99882
2017-12-08T22:33:07.872Z,99878
2017-12-08T22:38:10.156Z,99878
2017-12-08T22:43:12.394Z,99874
2017-12-08T22:48:20.909Z,99864
2017-12-08T22:53:22.473Z,99866
2017-12-08T22:58:24.540Z,99867
2017-12-08T23:03:26.008Z,99874
2017-12-08T23:08:27.526Z,99863
2017-12-08T23:13:29.078Z,99847
2017-12-08T23:18:30.640Z,99853
2017-12-08T23:23:32.205Z,99847
2017-12-08T23:28:33.743Z,99852
2017-12-08T23:33:35.417Z,99859
2017-12-08T23:38:36.982Z,99852
2017-12-08T23:43:38.514Z,99854
2017-12-08T23:48:40.034Z,99869
2017-12-08T23:53:41.681Z,99860
2017-12-08T23:58:43.222Z,99863
